Time;durP1;ratioP1;P1;durP2;ratioP2;P2;SDS_P1;SDS_P2;PMS_P1;PMS_P2;Temp;Humidity;BMP_temperature;BMP_pressure;BME280_temperature;BME280_humidity;BME280_pressure;Samples;Min_cycle;Max_cycle;Signal;HPM_P1;HPM_P2
2022/03/12 00:00:56;;;;;;;28.97;15.60;;;8.80;1.00;;;;;;4979865;28;20450;-82
2022/03/12 00:03:23;;;;;;;18.30;11.13;;;8.80;1.00;;;;;;4979357;28;20545;-83
2022/03/12 00:05:52;;;;;;;12.70;8.03;;;8.90;1.00;;;;;;4980388;28;20455;-82
2022/03/12 00:08:20;;;;;;;15.40;8.77;;;8.80;1.00;;;;;;4979621;28;20498;-82
2022/03/12 00:10:52;;;;;;;16.97;8.90;;;8.90;1.00;;;;;;4979383;28;20482;-82
2022/03/12 00:13:19;;;;;;;12.83;7.67;;;9.00;1.00;;;;;;4980728;28;20475;-82
2022/03/12 00:15:47;;;;;;;11.40;6.50;;;8.90;1.00;;;;;;4980301;28;20483;-82
2022/03/12 00:18:17;;;;;;;12.87;7.13;;;8.80;1.00;;;;;;4978513;28;20458;-82
2022/03/12 00:20:48;;;;;;;14.03;6.90;;;8.80;1.00;;;;;;4979342;28;20863;-82
2022/03/12 00:23:18;;;;;;;13.83;6.30;;;8.90;1.00;;;;;;4979995;28;20485;-82
2022/03/12 00:25:46;;;;;;;10.63;6.97;;;8.80;1.00;;;;;;4979679;28;20454;-82
2022/03/12 00:28:15;;;;;;;9.70;5.67;;;8.90;1.00;;;;;;4979932;28;20454;-83
2022/03/12 00:30:50;;;;;;;13.57;7.40;;;8.80;1.00;;;;;;4979209;28;20514;-81
2022/03/12 00:33:18;;;;;;;13.57;7.70;;;8.80;1.00;;;;;;4979282;28;20473;-82
2022/03/12 00:35:47;;;;;;;10.13;6.37;;;8.80;1.00;;;;;;4979365;28;20459;-82
2022/03/12 00:38:13;;;;;;;21.27;7.10;;;8.80;1.00;;;;;;4980060;28;20494;-82
2022/03/12 00:40:40;;;;;;;12.83;6.90;;;8.70;1.00;;;;;;4978945;28;20455;-82
2022/03/12 00:43:09;;;;;;;11.23;7.37;;;8.60;1.00;;;;;;4979789;28;20478;-82
2022/03/12 00:45:37;;;;;;;13.30;6.80;;;8.70;1.00;;;;;;4978193;28;20530;-82
2022/03/12 00:48:04;;;;;;;12.90;7.60;;;8.70;1.00;;;;;;4979133;28;20462;-82
2022/03/12 00:50:31;;;;;;;15.73;7.30;;;8.70;1.00;;;;;;4978450;28;20489;-82
2022/03/12 00:52:57;;;;;;;12.50;7.53;;;8.70;1.00;;;;;;4977230;28;20479;-82
2022/03/12 00:55:24;;;;;;;10.73;7.20;;;8.60;1.00;;;;;;4978985;28;20454;-82
2022/03/12 00:57:51;;;;;;;10.83;6.93;;;8.60;1.00;;;;;;4979210;28;20459;-82
2022/03/12 01:00:22;;;;;;;10.93;7.27;;;8.60;1.00;;;;;;4977526;28;20978;-82
2022/03/12 01:02:51;;;;;;;10.73;6.60;;;8.60;1.00;;;;;;4979185;28;20483;-82
2022/03/12 01:05:22;;;;;;;15.33;6.80;;;8.60;1.00;;;;;;4959617;28;20460;-82
2022/03/12 01:07:48;;;;;;;14.03;7.40;;;8.60;1.00;;;;;;4958928;29;20475;-83
2022/03/12 01:10:15;;;;;;;15.50;7.50;;;8.50;1.00;;;;;;4978795;28;20486;-83
2022/03/12 01:12:43;;;;;;;11.90;7.40;;;8.50;1.00;;;;;;4978267;28;20555;-82
2022/03/12 01:15:11;;;;;;;16.13;9.33;;;8.50;1.00;;;;;;4996489;28;20822;-82
2022/03/12 01:17:40;;;;;;;12.00;6.37;;;8.50;1.00;;;;;;4992126;28;20455;-83
2022/03/12 01:20:10;;;;;;;12.60;7.30;;;8.50;1.00;;;;;;4978420;28;20450;-82
2022/03/12 01:22:41;;;;;;;12.50;9.20;;;8.50;1.00;;;;;;4979180;28;20479;-83
2022/03/12 01:25:09;;;;;;;17.50;7.30;;;8.50;1.00;;;;;;4970429;28;20450;-82
2022/03/12 01:27:36;;;;;;;18.30;8.30;;;8.50;1.00;;;;;;4979386;28;20463;-83
2022/03/12 01:30:06;;;;;;;12.00;7.50;;;8.50;1.00;;;;;;4978220;28;20857;-82
2022/03/12 01:32:32;;;;;;;10.67;7.00;;;8.50;1.00;;;;;;4979147;28;21090;-82
2022/03/12 01:34:59;;;;;;;11.87;6.67;;;8.50;1.00;;;;;;4978765;28;20455;-82
2022/03/12 01:37:27;;;;;;;11.57;6.87;;;8.50;1.00;;;;;;4980257;28;20463;-82
2022/03/12 01:39:54;;;;;;;12.97;7.20;;;8.40;1.00;;;;;;4997950;28;20469;-82
2022/03/12 01:42:21;;;;;;;11.93;7.00;;;8.50;1.00;;;;;;4996604;28;20922;-82
2022/03/12 01:44:50;;;;;;;15.77;6.97;;;8.50;1.00;;;;;;4959337;29;20452;-82
2022/03/12 01:47:19;;;;;;;13.50;6.77;;;8.40;1.00;;;;;;4960120;28;20456;-82
2022/03/12 01:49:47;;;;;;;12.90;6.27;;;8.40;1.00;;;;;;4997491;28;20532;-82
2022/03/12 01:52:14;;;;;;;10.80;7.30;;;8.40;1.00;;;;;;4997858;28;21137;-81
2022/03/12 01:54:43;;;;;;;12.83;6.70;;;8.50;1.00;;;;;;4979845;28;20459;-83
2022/03/12 01:57:10;;;;;;;12.10;7.33;;;8.40;1.00;;;;;;4984536;28;20454;-82
2022/03/12 01:59:37;;;;;;;12.90;7.47;;;8.50;1.00;;;;;;4998361;28;20458;-82
2022/03/12 02:02:08;;;;;;;12.43;7.10;;;8.40;1.00;;;;;;5016564;22;20479;-79
2022/03/12 02:04:37;;;;;;;15.20;8.07;;;8.40;1.00;;;;;;4974561;28;20506;-79
2022/03/12 02:07:05;;;;;;;11.93;7.40;;;8.50;1.00;;;;;;4974975;28;20451;-79
2022/03/12 02:09:32;;;;;;;14.83;7.90;;;8.40;1.00;;;;;;4974974;28;20459;-79
2022/03/12 02:12:00;;;;;;;10.20;7.20;;;8.50;1.00;;;;;;4974669;28;20458;-79
2022/03/12 02:14:28;;;;;;;14.40;8.00;;;8.60;1.00;;;;;;4974840;28;20458;-79
2022/03/12 02:16:58;;;;;;;13.43;7.47;;;8.50;1.00;;;;;;4974712;28;20455;-79
2022/03/12 02:19:27;;;;;;;12.37;7.70;;;8.50;1.00;;;;;;4974682;28;20968;-80
2022/03/12 02:22:04;;;;;;;12.33;8.10;;;8.50;1.00;;;;;;4974667;28;20451;-80
2022/03/12 02:24:36;;;;;;;14.70;7.50;;;8.50;1.00;;;;;;4974806;28;20454;-79
2022/03/12 02:27:05;;;;;;;18.87;8.87;;;8.40;1.00;;;;;;4973319;28;20970;-79
2022/03/12 02:29:33;;;;;;;18.47;7.40;;;8.40;1.00;;;;;;4973621;28;20463;-80
2022/03/12 02:32:03;;;;;;;14.00;7.67;;;8.30;1.00;;;;;;4973713;28;20479;-79
2022/03/12 02:34:35;;;;;;;10.60;8.30;;;8.20;1.00;;;;;;4973529;28;20466;-79
2022/03/12 02:37:01;;;;;;;14.50;7.90;;;8.20;1.00;;;;;;4973684;28;20545;-80
2022/03/12 02:39:30;;;;;;;18.30;8.43;;;8.30;1.00;;;;;;4973770;28;20465;-79
2022/03/12 02:42:01;;;;;;;15.17;7.57;;;8.30;1.00;;;;;;4973606;28;20453;-80
2022/03/12 02:44:28;;;;;;;11.93;8.23;;;8.40;1.00;;;;;;4974313;28;20533;-79
2022/03/12 02:47:13;;;;;;;14.50;7.60;;;8.40;1.00;;;;;;4973595;28;20944;-79
2022/03/12 02:49:43;;;;;;;13.00;7.47;;;8.50;1.00;;;;;;4974101;28;20447;-80
2022/03/12 02:52:10;;;;;;;19.90;8.63;;;8.40;1.00;;;;;;4973405;28;20463;-80
2022/03/12 02:54:37;;;;;;;11.60;7.63;;;8.50;1.00;;;;;;4973909;28;20451;-78
2022/03/12 02:57:05;;;;;;;12.63;7.13;;;8.50;1.00;;;;;;4973228;28;20475;-81
2022/03/12 02:59:33;;;;;;;17.70;8.10;;;8.40;1.00;;;;;;4973012;28;20948;-80
2022/03/12 03:02:03;;;;;;;13.77;8.33;;;8.20;1.00;;;;;;4972870;28;20454;-80
2022/03/12 03:04:31;;;;;;;17.83;8.47;;;8.10;1.00;;;;;;4973402;28;20466;-80
2022/03/12 03:07:00;;;;;;;13.60;7.23;;;8.00;1.00;;;;;;4973574;28;20450;-79
2022/03/12 03:09:27;;;;;;;13.63;8.47;;;8.00;1.00;;;;;;4973213;28;20482;-79
2022/03/12 03:11:54;;;;;;;12.77;8.03;;;7.90;1.00;;;;;;4972688;28;20478;-79
2022/03/12 03:14:26;;;;;;;14.10;7.60;;;8.00;1.00;;;;;;4973410;28;20447;-79
2022/03/12 03:16:53;;;;;;;17.13;8.93;;;8.00;1.00;;;;;;4975580;28;20466;-81
2022/03/12 03:19:25;;;;;;;14.10;9.10;;;8.00;1.00;;;;;;4978685;28;21000;-79
2022/03/12 03:21:56;;;;;;;14.53;8.37;;;8.10;1.00;;;;;;4977493;28;20490;-79
2022/03/12 03:24:27;;;;;;;12.90;8.30;;;8.00;1.00;;;;;;4976419;28;20466;-79
2022/03/12 03:26:56;;;;;;;12.17;8.20;;;8.10;1.00;;;;;;4976098;28;20461;-80
2022/03/12 03:29:29;;;;;;;15.17;8.20;;;8.10;1.00;;;;;;4976403;28;20451;-79
2022/03/12 03:31:58;;;;;;;12.50;8.10;;;8.10;1.00;;;;;;4976377;28;20501;-79
2022/03/12 03:34:25;;;;;;;14.40;7.97;;;8.00;1.00;;;;;;4976481;28;20450;-79
2022/03/12 03:36:52;;;;;;;16.03;8.97;;;8.10;1.00;;;;;;4976458;28;20841;-79
2022/03/12 03:39:19;;;;;;;13.73;9.00;;;8.10;1.00;;;;;;4977403;28;20872;-79
2022/03/12 03:41:46;;;;;;;14.70;9.60;;;8.20;1.00;;;;;;4975841;28;21011;-79
2022/03/12 03:44:13;;;;;;;12.17;8.40;;;8.10;1.00;;;;;;4976630;28;20455;-79
2022/03/12 03:46:42;;;;;;;17.03;9.50;;;8.00;1.00;;;;;;4971644;28;20542;-80
2022/03/12 03:49:09;;;;;;;14.40;8.50;;;8.10;1.00;;;;;;4975409;28;20486;-79
2022/03/12 03:51:41;;;;;;;13.87;8.67;;;8.00;1.00;;;;;;4977302;28;20493;-80
2022/03/12 03:54:08;;;;;;;14.40;9.47;;;8.10;1.00;;;;;;4976479;28;20530;-80
2022/03/12 03:56:35;;;;;;;20.37;11.73;;;8.00;1.00;;;;;;4976264;28;20482;-82
2022/03/12 03:59:02;;;;;;;14.43;8.30;;;8.00;1.00;;;;;;4975339;28;20852;-79
2022/03/12 04:01:29;;;;;;;12.50;8.53;;;8.00;1.00;;;;;;4975307;28;20752;-80
2022/03/12 04:03:57;;;;;;;13.77;8.63;;;8.00;1.00;;;;;;4976498;28;21027;-80
2022/03/12 04:06:25;;;;;;;13.33;8.20;;;8.00;1.00;;;;;;4975177;28;20455;-79
2022/03/12 04:08:53;;;;;;;14.53;8.30;;;7.90;1.00;;;;;;4975638;28;20489;-81
2022/03/12 04:11:21;;;;;;;11.97;7.50;;;7.90;1.00;;;;;;4976320;28;20479;-79
2022/03/12 04:13:49;;;;;;;14.87;7.80;;;7.90;1.00;;;;;;4974537;28;20479;-80
2022/03/12 04:16:17;;;;;;;15.03;8.27;;;7.90;1.00;;;;;;4976366;28;20483;-80
2022/03/12 04:18:46;;;;;;;17.60;9.10;;;7.80;1.00;;;;;;4976273;28;20465;-80
2022/03/12 04:21:16;;;;;;;20.27;8.30;;;7.90;1.00;;;;;;4974698;28;20454;-79
2022/03/12 04:23:43;;;;;;;13.13;9.07;;;7.80;1.00;;;;;;4976275;28;20574;-82
2022/03/12 04:26:10;;;;;;;17.57;8.57;;;7.90;1.00;;;;;;4974944;28;20815;-80
2022/03/12 04:28:38;;;;;;;13.20;8.07;;;7.90;1.00;;;;;;4975422;28;20491;-80
2022/03/12 04:31:06;;;;;;;13.83;7.97;;;7.90;1.00;;;;;;4975848;28;20471;-79
2022/03/12 04:33:34;;;;;;;14.10;8.57;;;7.90;1.00;;;;;;4974216;28;20478;-80
2022/03/12 04:36:02;;;;;;;13.93;8.37;;;7.90;1.00;;;;;;4976537;28;20458;-80
2022/03/12 04:38:30;;;;;;;13.67;8.80;;;7.80;1.00;;;;;;4975569;28;20451;-81
2022/03/12 04:40:57;;;;;;;14.60;9.03;;;7.80;1.00;;;;;;4976908;28;20458;-81
2022/03/12 04:43:26;;;;;;;13.70;8.13;;;7.90;1.00;;;;;;4977369;28;20478;-79
2022/03/12 04:45:53;;;;;;;22.40;9.13;;;7.70;1.00;;;;;;4973917;28;20463;-80
2022/03/12 04:48:22;;;;;;;17.17;9.27;;;7.70;1.00;;;;;;4975782;28;20459;-80
2022/03/12 04:50:50;;;;;;;14.40;8.57;;;7.50;1.00;;;;;;4975992;28;20475;-80
2022/03/12 04:53:17;;;;;;;17.47;7.57;;;7.40;1.00;;;;;;4976045;28;20471;-80
2022/03/12 04:55:45;;;;;;;16.37;9.20;;;7.30;1.00;;;;;;4974079;28;20475;-79
2022/03/12 04:58:13;;;;;;;16.80;9.53;;;7.10;1.00;;;;;;4973411;28;20465;-80
2022/03/12 05:00:41;;;;;;;16.87;8.73;;;7.00;1.90;;;;;;4974336;28;20838;-79
2022/03/12 05:03:09;;;;;;;19.27;8.87;;;6.80;1.70;;;;;;4974656;28;20490;-80
2022/03/12 05:05:39;;;;;;;13.63;8.83;;;6.70;1.90;;;;;;4973776;28;20482;-79
2022/03/12 05:08:07;;;;;;;15.57;9.03;;;6.50;2.20;;;;;;4975347;28;20451;-79
2022/03/12 05:10:36;;;;;;;14.37;9.20;;;6.40;3.10;;;;;;4974187;28;20486;-81
2022/03/12 05:13:06;;;;;;;15.47;9.00;;;6.40;1.60;;;;;;4975074;28;20486;-79
2022/03/12 05:15:44;;;;;;;125.73;61.27;;;6.40;2.10;;;;;;4977779;28;20454;-81
2022/03/12 05:18:13;;;;;;;13.63;8.40;;;6.40;2.10;;;;;;4973515;28;20498;-80
2022/03/12 05:21:04;;;;;;;17.77;10.30;;;6.40;2.60;;;;;;4975232;28;20451;-79
2022/03/12 05:23:38;;;;;;;14.40;10.40;;;6.30;2.40;;;;;;4973949;28;20475;-79
2022/03/12 05:26:06;;;;;;;14.60;8.63;;;6.30;3.30;;;;;;4973750;28;20483;-80
2022/03/12 05:28:37;;;;;;;15.17;9.70;;;6.10;3.30;;;;;;4974384;28;20987;-80
2022/03/12 05:31:09;;;;;;;15.50;9.70;;;6.00;3.30;;;;;;4973347;28;20896;-79
2022/03/12 05:33:36;;;;;;;17.20;10.10;;;5.90;4.00;;;;;;4975253;28;20841;-79
2022/03/12 05:36:04;;;;;;;14.00;9.93;;;5.90;4.40;;;;;;4974505;28;20451;-80
2022/03/12 05:38:34;;;;;;;17.73;8.90;;;5.80;4.50;;;;;;4972542;28;20451;-80
2022/03/12 05:41:02;;;;;;;14.33;9.40;;;5.70;5.10;;;;;;4973686;28;20463;-79
2022/03/12 05:43:30;;;;;;;15.53;9.27;;;5.60;5.50;;;;;;4973981;28;20478;-81
2022/03/12 05:45:59;;;;;;;13.33;9.10;;;5.50;6.00;;;;;;4972344;28;20626;-79
2022/03/12 05:48:27;;;;;;;14.33;9.33;;;5.50;6.10;;;;;;4973057;28;20451;-80
2022/03/12 05:50:54;;;;;;;14.00;9.13;;;5.50;5.60;;;;;;4973742;28;20455;-80
2022/03/12 05:53:21;;;;;;;17.57;10.10;;;5.50;4.90;;;;;;4972857;28;20485;-79
2022/03/12 05:55:49;;;;;;;15.80;9.93;;;5.60;4.80;;;;;;4973409;28;20829;-79
2022/03/12 05:58:17;;;;;;;15.23;10.13;;;5.80;5.60;;;;;;4973009;28;20534;-79
2022/03/12 06:00:45;;;;;;;15.93;9.60;;;5.90;4.90;;;;;;4973504;28;20456;-80
2022/03/12 06:03:26;;;;;;;13.60;9.40;;;5.90;4.30;;;;;;4973984;28;20498;-79
2022/03/12 06:05:55;;;;;;;14.47;8.60;;;5.90;5.00;;;;;;4973704;28;20458;-80
2022/03/12 06:08:22;;;;;;;18.07;9.67;;;5.90;5.20;;;;;;4973287;28;20968;-80
2022/03/12 06:11:01;;;;;;;16.27;10.43;;;6.00;4.60;;;;;;4973837;28;20974;-79
2022/03/12 06:13:29;;;;;;;15.73;9.47;;;5.90;5.20;;;;;;4974207;28;20485;-79
2022/03/12 06:15:58;;;;;;;14.10;8.40;;;6.00;4.60;;;;;;4973713;28;20825;-80
2022/03/12 06:18:28;;;;;;;17.53;8.20;;;6.10;4.80;;;;;;4974436;28;20454;-80
2022/03/12 06:20:55;;;;;;;15.47;8.87;;;6.00;4.80;;;;;;4973771;28;20450;-78
2022/03/12 06:23:22;;;;;;;14.43;9.87;;;6.10;4.50;;;;;;4971764;28;20475;-80
2022/03/12 06:25:51;;;;;;;13.93;8.73;;;6.10;4.60;;;;;;4974594;28;20461;-80
2022/03/12 06:28:19;;;;;;;14.27;9.20;;;6.40;3.40;;;;;;4973598;28;20451;-79
2022/03/12 06:30:47;;;;;;;18.77;10.00;;;6.50;2.80;;;;;;4972668;28;20457;-79
2022/03/12 06:33:15;;;;;;;16.43;9.20;;;6.60;2.20;;;;;;4973491;28;20995;-79
2022/03/12 06:35:46;;;;;;;14.70;8.87;;;6.70;1.90;;;;;;4972855;28;20549;-79
2022/03/12 06:38:14;;;;;;;14.43;8.60;;;6.70;2.40;;;;;;4972737;28;20534;-79
2022/03/12 06:40:41;;;;;;;12.90;8.20;;;6.90;2.50;;;;;;4975831;28;20458;-80
2022/03/12 06:43:16;;;;;;;16.23;9.33;;;7.00;2.50;;;;;;4974220;28;20847;-79
2022/03/12 06:45:42;;;;;;;17.57;10.13;;;7.00;1.90;;;;;;4974273;28;20451;-81
2022/03/12 06:48:10;;;;;;;18.40;10.30;;;7.00;2.20;;;;;;4971827;28;20459;-81
2022/03/12 06:50:37;;;;;;;14.67;8.40;;;7.00;2.40;;;;;;4984966;28;20454;-83
2022/03/12 06:53:06;;;;;;;18.93;9.50;;;7.10;2.90;;;;;;4987680;28;20476;-83
2022/03/12 06:55:34;;;;;;;16.37;9.07;;;7.10;2.80;;;;;;4991086;28;20461;-81
2022/03/12 06:58:01;;;;;;;16.97;10.50;;;7.20;2.80;;;;;;4989805;28;20526;-83
2022/03/12 07:00:31;;;;;;;15.13;9.00;;;7.30;3.90;;;;;;4989561;28;20451;-81
2022/03/12 07:02:59;;;;;;;17.77;10.40;;;7.40;4.10;;;;;;4990418;28;20475;-81
2022/03/12 07:05:28;;;;;;;15.73;10.40;;;7.50;3.80;;;;;;4988377;28;20857;-83
2022/03/12 07:07:56;;;;;;;17.57;8.43;;;7.60;4.20;;;;;;4991405;28;20478;-82
2022/03/12 07:10:24;;;;;;;17.90;10.00;;;7.60;4.20;;;;;;4989483;28;21029;-81
2022/03/12 07:12:51;;;;;;;14.07;9.20;;;7.70;5.00;;;;;;4976079;28;20510;-82
2022/03/12 07:15:21;;;;;;;15.00;9.83;;;7.90;5.60;;;;;;4987501;28;20461;-82
2022/03/12 07:17:49;;;;;;;17.43;9.73;;;8.10;5.40;;;;;;4986174;28;20451;-82
2022/03/12 07:20:17;;;;;;;18.03;9.77;;;8.20;5.90;;;;;;4987191;28;20459;-81
2022/03/12 07:22:45;;;;;;;14.57;9.60;;;8.20;6.00;;;;;;4989053;28;20509;-82
2022/03/12 07:25:14;;;;;;;15.13;9.10;;;8.40;7.00;;;;;;4987499;28;20469;-82
2022/03/12 07:27:43;;;;;;;18.70;10.87;;;8.40;6.60;;;;;;4987831;28;20486;-81
2022/03/12 07:30:15;;;;;;;16.03;10.00;;;8.50;7.50;;;;;;4987245;28;20462;-82
2022/03/12 07:32:43;;;;;;;14.37;9.20;;;8.60;7.90;;;;;;4985111;28;20573;-82
2022/03/12 07:35:20;;;;;;;15.60;9.90;;;8.60;8.70;;;;;;4983809;28;20482;-82
2022/03/12 07:37:50;;;;;;;17.27;9.40;;;8.80;7.90;;;;;;4983849;28;20450;-82
2022/03/12 07:40:20;;;;;;;14.50;9.13;;;8.80;7.30;;;;;;4986073;28;20968;-82
2022/03/12 07:42:49;;;;;;;14.87;8.93;;;8.80;8.20;;;;;;4985422;28;20891;-81
2022/03/12 07:45:16;;;;;;;14.70;9.30;;;8.90;7.60;;;;;;4984261;28;20451;-82
2022/03/12 07:47:43;;;;;;;15.67;9.30;;;8.90;8.10;;;;;;4985228;28;20455;-82
2022/03/12 07:50:11;;;;;;;14.77;9.27;;;9.00;8.50;;;;;;4982082;28;20510;-82
2022/03/12 07:52:42;;;;;;;18.63;10.27;;;9.10;7.90;;;;;;4981174;28;20509;-81
2022/03/12 07:55:11;;;;;;;18.43;10.10;;;9.20;7.50;;;;;;4980791;28;20959;-81
2022/03/12 07:57:39;;;;;;;17.53;10.30;;;9.30;7.50;;;;;;4979495;28;20545;-80
2022/03/12 08:00:09;;;;;;;14.33;10.03;;;9.40;8.80;;;;;;4981543;28;20447;-81
2022/03/12 08:02:36;;;;;;;15.10;10.43;;;9.40;9.40;;;;;;4995550;23;20475;-82
2022/03/12 08:05:04;;;;;;;18.40;12.23;;;9.60;8.80;;;;;;4957622;28;21010;-83
2022/03/12 08:07:32;;;;;;;15.13;10.10;;;9.70;8.80;;;;;;4957656;29;20463;-86
2022/03/12 08:09:59;;;;;;;15.00;12.30;;;9.70;8.80;;;;;;4963196;28;20812;-84
2022/03/12 08:12:28;;;;;;;16.63;10.50;;;9.80;9.30;;;;;;4977225;28;20479;-84
2022/03/12 08:14:55;;;;;;;17.13;11.23;;;10.10;8.70;;;;;;4971733;28;20511;-84
2022/03/12 08:17:23;;;;;;;16.50;10.47;;;10.10;8.10;;;;;;4958235;28;20542;-84
2022/03/12 08:19:50;;;;;;;21.10;11.77;;;10.10;9.60;;;;;;4962571;28;20479;-84
2022/03/12 08:22:18;;;;;;;20.90;11.50;;;10.40;10.40;;;;;;4966962;28;20467;-84
2022/03/12 08:24:44;;;;;;;17.90;10.87;;;10.60;9.90;;;;;;4962766;28;20455;-85
2022/03/12 08:27:14;;;;;;;16.00;10.97;;;10.70;9.50;;;;;;4965988;28;20459;-84
2022/03/12 08:29:41;;;;;;;17.50;11.60;;;10.90;9.90;;;;;;4959909;28;20464;-82
2022/03/12 08:32:09;;;;;;;16.70;10.80;;;11.20;9.90;;;;;;4976097;28;20491;-80
2022/03/12 08:34:37;;;;;;;20.00;12.00;;;11.40;10.10;;;;;;4976122;28;20511;-85
2022/03/12 08:37:05;;;;;;;18.33;10.60;;;11.50;11.10;;;;;;4959932;29;20460;-84
2022/03/12 08:39:32;;;;;;;13.87;9.53;;;11.70;12.00;;;;;;4961533;28;20827;-83
2022/03/12 08:41:59;;;;;;;12.47;7.33;;;11.70;13.70;;;;;;4984929;28;20447;-83
2022/03/12 08:44:26;;;;;;;12.17;7.43;;;11.90;21.90;;;;;;4983105;28;20479;-83
2022/03/12 08:46:53;;;;;;;11.23;5.97;;;12.10;21.30;;;;;;4962426;28;20988;-85
2022/03/12 08:49:19;;;;;;;13.90;6.30;;;12.20;21.40;;;;;;4962541;29;20456;-84
2022/03/12 08:51:47;;;;;;;11.80;7.10;;;12.20;21.40;;;;;;4975404;28;20475;-85
2022/03/12 08:55:07;;;;;;;15.33;8.10;;;12.40;21.60;;;;;;4961347;29;20476;-84
2022/03/12 08:57:34;;;;;;;11.50;6.80;;;12.70;21.10;;;;;;4945121;29;20461;-85
2022/03/12 09:00:01;;;;;;;11.63;6.87;;;12.90;20.40;;;;;;4945454;28;20483;-85
2022/03/12 09:02:28;;;;;;;10.37;6.37;;;13.00;20.20;;;;;;4979287;28;20451;-84
2022/03/12 09:04:55;;;;;;;10.10;6.70;;;13.00;20.80;;;;;;4978946;28;20455;-84
2022/03/12 09:07:24;;;;;;;10.77;6.97;;;13.10;20.50;;;;;;4962450;28;20994;-85
2022/03/12 09:09:54;;;;;;;16.87;8.40;;;13.20;18.60;;;;;;4969506;28;20509;-84
2022/03/12 09:12:22;;;;;;;11.63;8.20;;;13.20;20.00;;;;;;4981983;28;20550;-86
2022/03/12 09:14:49;;;;;;;13.93;6.00;;;13.20;21.50;;;;;;4971053;28;20455;-86
2022/03/12 09:17:16;;;;;;;14.40;6.43;;;13.00;20.40;;;;;;4960038;28;21019;-87
2022/03/12 09:19:43;;;;;;;12.87;7.37;;;12.70;21.80;;;;;;4965921;28;20462;-86
2022/03/12 09:22:10;;;;;;;12.17;5.40;;;12.80;21.80;;;;;;4966751;28;20454;-85
2022/03/12 09:24:40;;;;;;;8.40;4.80;;;12.60;21.60;;;;;;4960400;28;20473;-84
2022/03/12 09:27:07;;;;;;;13.73;8.47;;;12.60;21.70;;;;;;4950408;29;20482;-85
2022/03/12 09:29:35;;;;;;;10.93;6.27;;;12.80;22.30;;;;;;4958686;28;20496;-84
2022/03/12 09:32:02;;;;;;;11.20;6.70;;;12.90;21.90;;;;;;4958507;28;20452;-86
2022/03/12 09:34:29;;;;;;;10.00;5.60;;;13.00;22.20;;;;;;4957304;29;20550;-84
2022/03/12 09:36:55;;;;;;;10.30;6.97;;;13.10;22.10;;;;;;4960882;28;20460;-84
2022/03/12 09:39:22;;;;;;;13.97;5.97;;;13.10;21.90;;;;;;4978589;28;20555;-84
2022/03/12 09:41:50;;;;;;;8.70;4.10;;;13.10;20.00;;;;;;4975190;28;20460;-87
2022/03/12 09:44:17;;;;;;;8.10;4.40;;;13.20;20.00;;;;;;4960798;28;20476;-86
2022/03/12 09:46:44;;;;;;;6.97;3.93;;;13.40;19.40;;;;;;4962094;28;20738;-87
2022/03/12 09:49:11;;;;;;;8.80;5.77;;;13.60;19.00;;;;;;4967364;28;20459;-86
2022/03/12 09:51:38;;;;;;;9.10;4.97;;;13.60;18.80;;;;;;4960507;28;21016;-84
2022/03/12 09:54:05;;;;;;;16.83;5.40;;;13.70;17.90;;;;;;4980785;28;20490;-84
2022/03/12 09:56:32;;;;;;;6.83;3.67;;;14.10;18.00;;;;;;4979065;28;20470;-84
2022/03/12 09:59:04;;;;;;;10.27;5.87;;;14.30;15.60;;;;;;4979331;28;20459;-85
2022/03/12 10:01:30;;;;;;;10.73;6.23;;;14.50;15.80;;;;;;4967835;28;20461;-84
2022/03/12 10:03:58;;;;;;;8.47;4.70;;;14.50;14.70;;;;;;4960140;28;21008;-84
2022/03/12 10:06:25;;;;;;;11.70;5.27;;;14.90;14.70;;;;;;4969859;28;20457;-85
2022/03/12 10:08:52;;;;;;;10.93;5.60;;;15.20;14.40;;;;;;4977745;28;20466;-84
2022/03/12 10:11:19;;;;;;;12.93;3.57;;;15.50;11.90;;;;;;4977825;28;20513;-84
2022/03/12 10:13:46;;;;;;;9.77;5.07;;;15.20;11.20;;;;;;4978300;28;20545;-85
2022/03/12 10:16:14;;;;;;;10.27;4.50;;;15.40;12.60;;;;;;4959232;28;20836;-86
2022/03/12 10:18:41;;;;;;;7.40;4.20;;;15.50;12.00;;;;;;4957817;29;20462;-85
2022/03/12 10:21:08;;;;;;;9.57;5.33;;;15.60;9.90;;;;;;4975103;28;21024;-85
2022/03/12 10:23:35;;;;;;;11.63;5.47;;;16.00;12.00;;;;;;4977763;28;20934;-85
2022/03/12 10:26:02;;;;;;;8.77;5.57;;;16.30;9.60;;;;;;4976394;28;20459;-86
2022/03/12 10:28:34;;;;;;;12.27;5.10;;;16.30;9.50;;;;;;4977735;28;20467;-85
2022/03/12 10:31:03;;;;;;;7.90;4.37;;;16.30;9.80;;;;;;4962359;29;20499;-82
2022/03/12 10:33:33;;;;;;;9.83;4.40;;;16.40;9.60;;;;;;4964117;28;20503;-85
2022/03/12 10:36:10;;;;;;;8.37;4.00;;;16.50;8.70;;;;;;4981409;28;20488;-85
2022/03/12 10:38:39;;;;;;;7.70;3.97;;;16.30;7.80;;;;;;4975110;28;20451;-85
2022/03/12 10:41:07;;;;;;;8.97;4.10;;;16.00;8.40;;;;;;4960204;29;20463;-84
2022/03/12 10:43:44;;;;;;;8.07;4.67;;;16.40;8.00;;;;;;4965175;28;21014;-84
2022/03/12 10:46:19;;;;;;;8.63;3.77;;;16.60;7.90;;;;;;4982590;28;20843;-84
2022/03/12 10:48:49;;;;;;;8.00;4.63;;;16.40;7.30;;;;;;4962653;28;20460;-84
2022/03/12 10:51:17;;;;;;;8.27;3.83;;;16.60;8.30;;;;;;4961700;28;20885;-84
2022/03/12 10:53:46;;;;;;;8.10;3.83;;;16.80;6.90;;;;;;4978768;28;20486;-85
2022/03/12 10:56:13;;;;;;;9.03;3.60;;;16.50;6.60;;;;;;4981339;28;20480;-83
2022/03/12 10:58:40;;;;;;;6.93;3.73;;;16.60;7.00;;;;;;4961414;28;20450;-84
2022/03/12 11:01:07;;;;;;;10.53;3.93;;;16.70;8.00;;;;;;4961074;29;20463;-82
2022/03/12 11:03:35;;;;;;;7.40;3.20;;;16.40;6.90;;;;;;4974942;28;20492;-86
2022/03/12 11:06:05;;;;;;;8.23;3.70;;;16.10;8.20;;;;;;4980376;28;20487;-84
2022/03/12 11:08:34;;;;;;;7.50;3.40;;;15.50;8.10;;;;;;4965261;28;20653;-85
2022/03/12 11:11:11;;;;;;;6.90;3.60;;;15.60;9.50;;;;;;4960711;28;20460;-86
2022/03/12 11:13:40;;;;;;;7.43;3.37;;;15.80;9.20;;;;;;4973201;28;20486;-85
2022/03/12 11:16:12;;;;;;;10.40;4.37;;;15.90;10.40;;;;;;4965767;28;20476;-85
2022/03/12 11:18:46;;;;;;;10.63;4.00;;;16.10;9.40;;;;;;4957292;29;20466;-86
2022/03/12 11:21:15;;;;;;;10.00;3.97;;;16.30;8.30;;;;;;4970963;28;20460;-86
2022/03/12 11:23:43;;;;;;;7.40;3.47;;;16.70;9.30;;;;;;4977145;28;20481;-87
2022/03/12 11:26:10;;;;;;;14.83;4.33;;;16.90;6.80;;;;;;4965520;28;20455;-86
2022/03/12 11:28:37;;;;;;;7.97;3.70;;;17.10;7.30;;;;;;4959071;28;20459;-85
2022/03/12 11:31:06;;;;;;;9.63;3.90;;;17.10;5.90;;;;;;4970920;28;20484;-85
2022/03/12 11:33:33;;;;;;;9.03;4.47;;;17.10;5.50;;;;;;4979809;28;20547;-85
2022/03/12 11:36:01;;;;;;;15.83;4.87;;;17.30;7.60;;;;;;4970426;28;20459;-86
2022/03/12 11:38:29;;;;;;;9.33;4.30;;;17.50;5.50;;;;;;4959786;28;20656;-86
2022/03/12 11:41:04;;;;;;;9.10;4.20;;;17.50;4.40;;;;;;4969310;28;20458;-85
2022/03/12 11:43:32;;;;;;;7.10;3.13;;;17.10;5.20;;;;;;4979822;28;20474;-85
2022/03/12 11:46:00;;;;;;;6.73;2.53;;;17.20;6.00;;;;;;4964581;28;20456;-85
2022/03/12 11:48:28;;;;;;;8.27;3.40;;;16.70;4.80;;;;;;4974573;28;20968;-85
2022/03/12 11:50:54;;;;;;;6.87;3.27;;;16.80;5.20;;;;;;4979956;28;20458;-85
2022/03/12 11:53:38;;;;;;;7.40;3.97;;;17.10;5.80;;;;;;4966354;28;20491;-85
2022/03/12 11:56:52;;;;;;;10.07;4.27;;;17.60;6.80;;;;;;4960462;28;20843;-86
2022/03/12 12:02:40;;;;;;;10.00;4.10;;;17.70;2.70;;;;;;4876470;29;20892;-85
2022/03/12 12:05:46;;;;;;;11.80;5.00;;;17.40;4.50;;;;;;4958999;28;20459;-85
2022/03/12 12:09:01;;;;;;;;;;;;;;;;;;;;;
2022/03/12 12:11:53;;;;;;;12.00;4.37;;;18.30;3.30;;;;;;4980900;28;20876;-85
2022/03/12 12:24:28;;;;;;;8.30;4.07;;;17.60;3.70;;;;;;4872584;29;20563;-84
2022/03/12 12:27:01;;;;;;;9.37;4.50;;;18.10;3.20;;;;;;4916904;29;20529;-84
2022/03/12 12:29:46;;;;;;;8.30;4.50;;;18.50;1.10;;;;;;5011946;23;20489;-83
2022/03/12 12:32:25;;;;;;;9.57;4.50;;;18.20;1.60;;;;;;4993620;28;20549;-85
2022/03/12 12:35:01;;;;;;;8.57;4.40;;;18.00;2.50;;;;;;5002074;28;20528;-83
2022/03/12 12:37:42;;;;;;;11.23;5.50;;;17.50;2.70;;;;;;5002988;28;20865;-83
2022/03/12 12:40:31;;;;;;;12.00;5.07;;;17.10;4.60;;;;;;5021879;28;20474;-83
2022/03/12 12:43:01;;;;;;;12.10;4.40;;;17.40;3.40;;;;;;5022766;28;20507;-83
2022/03/12 12:45:32;;;;;;;11.23;5.17;;;17.00;3.30;;;;;;5023775;28;20979;-83
2022/03/12 12:48:07;;;;;;;7.20;4.10;;;17.10;4.40;;;;;;5023172;28;20908;-83
2022/03/12 12:50:34;;;;;;;9.10;3.67;;;16.70;5.10;;;;;;5022888;28;20486;-83
2022/03/12 12:53:18;;;;;;;9.10;4.20;;;16.60;4.50;;;;;;5020667;28;20521;-84
2022/03/12 12:55:48;;;;;;;8.90;4.73;;;16.70;5.60;;;;;;5020187;28;20457;-84
2022/03/12 12:58:15;;;;;;;14.17;4.17;;;16.70;5.60;;;;;;5018735;28;20986;-84
2022/03/12 13:00:49;;;;;;;7.80;4.50;;;16.90;3.20;;;;;;5017326;28;20479;-84
2022/03/12 13:03:29;;;;;;;7.57;4.00;;;17.30;2.60;;;;;;5017227;28;20476;-84
2022/03/12 13:06:21;;;;;;;9.40;4.40;;;17.00;4.00;;;;;;5016895;28;20482;-86
2022/03/12 13:08:48;;;;;;;7.30;3.40;;;17.50;4.60;;;;;;5017331;28;20474;-84
2022/03/12 13:11:30;;;;;;;9.80;3.90;;;17.60;2.80;;;;;;5017177;28;20455;-84
2022/03/12 13:13:59;;;;;;;10.57;4.87;;;18.50;1.00;;;;;;5016456;28;20469;-83
2022/03/12 13:16:53;;;;;;;8.43;5.00;;;18.90;1.00;;;;;;5016780;28;21010;-85
2022/03/12 13:19:42;;;;;;;14.23;6.57;;;18.40;1.00;;;;;;5017028;28;20498;-84